Time;durP1;ratioP1;P1;durP2;ratioP2;P2;SDS_P1;SDS_P2;PMS_P1;PMS_P2;Temp;Humidity;BMP_temperature;BMP_pressure;BME280_temperature;BME280_humidity;BME280_pressure;Samples;Min_cycle;Max_cycle;Signal;HPM_P1;HPM_P2
2023/01/31 06:11:38;;;;;;;18.65;4.40;;;14.80;64.70;;;;;;5692693;23;20049;-69
2023/01/31 06:14:05;;;;;;;25.83;3.70;;;14.90;64.30;;;;;;4865954;29;20045;-68
2023/01/31 06:16:31;;;;;;;15.93;3.10;;;14.90;64.30;;;;;;4874557;29;20053;-70
2023/01/31 06:18:57;;;;;;;20.02;3.90;;;14.90;64.50;;;;;;4883591;29;20140;-71
2023/01/31 06:21:23;;;;;;;25.42;4.90;;;15.00;64.20;;;;;;4883520;29;20049;-71
2023/01/31 06:23:48;;;;;;;11.52;3.22;;;15.00;64.40;;;;;;4880911;29;20056;-69
2023/01/31 06:26:14;;;;;;;20.05;3.75;;;15.10;64.20;;;;;;4856323;29;20056;-70
2023/01/31 06:28:40;;;;;;;19.58;4.15;;;15.20;65.00;;;;;;4863579;29;20053;-70
2023/01/31 06:31:10;;;;;;;23.23;4.22;;;15.20;64.80;;;;;;4864489;29;20057;-70
2023/01/31 06:33:36;;;;;;;21.27;3.60;;;15.20;64.10;;;;;;4865179;29;20054;-70
2023/01/31 06:36:02;;;;;;;22.48;3.80;;;15.20;63.60;;;;;;4867875;29;20068;-70
2023/01/31 06:38:29;;;;;;;25.17;3.85;;;15.30;64.00;;;;;;4854950;29;20095;-70
2023/01/31 06:40:55;;;;;;;15.05;3.33;;;15.30;64.30;;;;;;4864163;29;20076;-71
2023/01/31 06:43:20;;;;;;;21.85;3.72;;;15.40;64.40;;;;;;4864250;29;20049;-70
2023/01/31 06:45:48;;;;;;;17.13;3.50;;;15.50;64.60;;;;;;4864388;29;20061;-70
2023/01/31 06:48:14;;;;;;;27.48;4.82;;;15.50;63.80;;;;;;4869438;29;20053;-70
2023/01/31 06:50:41;;;;;;;33.10;4.78;;;15.60;63.50;;;;;;4882959;29;20045;-75
2023/01/31 06:53:07;;;;;;;35.38;5.22;;;15.60;63.60;;;;;;4882602;29;20068;-75
2023/01/31 06:55:33;;;;;;;23.73;3.75;;;15.60;63.60;;;;;;4882603;29;20050;-73
2023/01/31 06:57:59;;;;;;;28.75;4.93;;;15.60;64.30;;;;;;4871893;29;20072;-76
2023/01/31 07:00:25;;;;;;;21.52;3.40;;;15.60;63.80;;;;;;4861382;29;20460;-73
2023/01/31 07:02:51;;;;;;;28.15;4.68;;;15.50;63.80;;;;;;4882641;29;20049;-72
2023/01/31 07:05:18;;;;;;;29.17;4.63;;;15.50;64.00;;;;;;4882522;29;20537;-73
2023/01/31 07:07:45;;;;;;;28.85;5.30;;;15.40;63.90;;;;;;4882673;29;20480;-74
2023/01/31 07:10:11;;;;;;;27.73;4.63;;;15.40;64.00;;;;;;4882459;29;20120;-71
2023/01/31 07:12:37;;;;;;;19.38;3.95;;;15.30;63.50;;;;;;4878878;29;20053;-71
2023/01/31 07:15:03;;;;;;;22.33;3.20;;;15.30;63.10;;;;;;4863707;29;20064;-73
2023/01/31 07:17:29;;;;;;;26.90;3.63;;;15.30;62.80;;;;;;4876535;29;20053;-73
2023/01/31 07:19:55;;;;;;;24.98;3.75;;;15.20;62.70;;;;;;4875467;29;20097;-73
2023/01/31 07:22:20;;;;;;;18.70;3.33;;;15.20;62.80;;;;;;4862919;29;20105;-73
2023/01/31 07:24:48;;;;;;;21.98;3.60;;;15.10;62.80;;;;;;4853712;29;20066;-73
2023/01/31 07:27:14;;;;;;;19.60;3.58;;;15.10;63.20;;;;;;4863126;29;20064;-71
2023/01/31 07:29:43;;;;;;;17.33;4.50;;;15.00;63.30;;;;;;4861867;29;20064;-75
2023/01/31 07:32:09;;;;;;;20.23;3.70;;;15.00;63.30;;;;;;4853859;29;20132;-73
2023/01/31 07:34:35;;;;;;;21.88;3.85;;;15.00;63.50;;;;;;4862863;29;20061;-72
2023/01/31 07:37:00;;;;;;;13.10;3.42;;;15.00;65.20;;;;;;4861919;29;20056;-72
2023/01/31 07:39:27;;;;;;;20.70;3.25;;;15.00;65.40;;;;;;4862147;29;20385;-72
2023/01/31 07:41:53;;;;;;;17.70;3.15;;;15.00;64.60;;;;;;4861665;29;20109;-74
2023/01/31 07:44:18;;;;;;;17.25;3.20;;;15.00;64.40;;;;;;4862730;29;20057;-72
2023/01/31 07:46:44;;;;;;;13.27;2.60;;;14.90;63.80;;;;;;4864003;29;20129;-75
2023/01/31 07:49:10;;;;;;;14.88;2.88;;;14.90;63.10;;;;;;4871923;29;20077;-73
2023/01/31 07:51:37;;;;;;;13.45;3.08;;;14.90;62.50;;;;;;4881661;29;20049;-74
2023/01/31 07:54:08;;;;;;;15.70;3.58;;;14.80;62.30;;;;;;4882188;29;20413;-72
2023/01/31 07:56:34;;;;;;;15.73;3.13;;;14.80;62.60;;;;;;4880309;29;20053;-75
2023/01/31 07:58:59;;;;;;;14.48;2.92;;;14.70;62.60;;;;;;4850018;29;20105;-73
2023/01/31 08:04:16;;;;;;;12.00;3.28;;;14.70;61.70;;;;;;4860712;29;20057;-76
2023/01/31 08:06:43;;;;;;;16.70;3.90;;;14.60;61.00;;;;;;4863006;29;20334;-73
2023/01/31 08:09:09;;;;;;;15.23;3.35;;;14.60;60.90;;;;;;4862897;29;20057;-75
2023/01/31 08:11:36;;;;;;;19.42;3.72;;;14.60;60.90;;;;;;4862769;29;20136;-74
2023/01/31 08:14:01;;;;;;;16.75;3.58;;;14.50;61.10;;;;;;4853474;29;20050;-71
2023/01/31 08:16:28;;;;;;;13.95;3.08;;;14.50;61.30;;;;;;4828272;29;20054;-72
2023/01/31 08:18:54;;;;;;;20.08;3.63;;;14.50;61.30;;;;;;4817537;29;20130;-74
2023/01/31 08:21:20;;;;;;;18.58;2.92;;;14.50;61.40;;;;;;4826176;29;20403;-72
2023/01/31 08:23:46;;;;;;;27.13;3.63;;;14.50;61.70;;;;;;4814667;29;20392;-71
2023/01/31 08:26:17;;;;;;;15.32;3.33;;;14.70;62.00;;;;;;4844962;29;20064;-73
2023/01/31 08:28:44;;;;;;;12.88;2.95;;;14.80;62.20;;;;;;4862611;29;20060;-73
2023/01/31 08:31:14;;;;;;;13.45;2.80;;;14.90;62.10;;;;;;4863318;29;20075;-74
2023/01/31 08:33:40;;;;;;;12.77;2.75;;;15.00;62.10;;;;;;4834182;29;20458;-74
2023/01/31 08:36:16;;;;;;;15.73;2.85;;;15.00;62.20;;;;;;4810320;29;20054;-71
2023/01/31 08:38:43;;;;;;;12.32;2.88;;;15.10;62.20;;;;;;4848821;29;20050;-74
2023/01/31 08:41:09;;;;;;;15.43;2.65;;;15.10;62.20;;;;;;4856242;29;20061;-73
2023/01/31 08:43:36;;;;;;;14.65;2.78;;;15.10;62.10;;;;;;4861559;29;20050;-75
2023/01/31 08:46:03;;;;;;;11.07;2.83;;;15.20;62.30;;;;;;4833160;29;20505;-70
2023/01/31 08:48:32;;;;;;;15.15;3.05;;;15.20;62.20;;;;;;4831494;29;20060;-76
2023/01/31 08:51:01;;;;;;;9.63;2.78;;;15.30;62.50;;;;;;4847911;29;20077;-76
2023/01/31 08:53:27;;;;;;;12.70;2.65;;;15.30;62.60;;;;;;4856296;29;20132;-75
2023/01/31 08:56:00;;;;;;;7.40;1.95;;;15.30;62.70;;;;;;4834890;29;20046;-75
2023/01/31 08:58:26;;;;;;;;;;;15.40;62.80;;;;;;4839536;29;20053;-76
2023/01/31 09:00:52;;;;;;;15.00;3.05;;;15.50;62.70;;;;;;4847501;29;19924;-76
2023/01/31 09:03:18;;;;;;;12.93;2.30;;;15.50;62.50;;;;;;4848264;29;20053;-76
2023/01/31 09:05:44;;;;;;;10.45;2.50;;;15.60;62.50;;;;;;4847618;29;20056;-70
2023/01/31 09:08:11;;;;;;;11.45;2.22;;;15.60;62.30;;;;;;4847283;29;20053;-76
2023/01/31 09:10:40;;;;;;;12.73;2.58;;;15.60;62.10;;;;;;4835392;29;20063;-80
2023/01/31 09:13:05;;;;;;;14.20;2.85;;;15.70;62.60;;;;;;4859533;29;20061;-80
2023/01/31 09:15:31;;;;;;;12.05;2.88;;;15.80;62.10;;;;;;4871770;29;20064;-76
2023/01/31 09:17:57;;;;;;;12.02;2.55;;;15.80;61.90;;;;;;4853591;29;20045;-80
2023/01/31 09:20:22;;;;;;;13.32;2.38;;;15.90;61.80;;;;;;4867740;29;20041;-79
2023/01/31 09:22:48;;;;;;;13.40;3.10;;;15.90;61.70;;;;;;4883770;29;20052;-77
2023/01/31 09:25:14;;;;;;;7.97;2.38;;;15.90;62.00;;;;;;4883547;29;20186;-78
2023/01/31 09:27:39;;;;;;;14.18;3.13;;;15.90;62.00;;;;;;4878079;29;20045;-80
2023/01/31 09:30:07;;;;;;;11.13;2.50;;;15.90;62.10;;;;;;4865731;29;20052;-78
2023/01/31 09:32:33;;;;;;;11.25;2.45;;;15.90;62.10;;;;;;4849379;29;20057;-78
2023/01/31 09:34:59;;;;;;;12.50;2.67;;;16.00;62.30;;;;;;4865366;29;20061;-77
2023/01/31 09:37:37;;;;;;;11.07;2.10;;;16.00;62.30;;;;;;4881078;29;20049;-79
2023/01/31 09:40:07;;;;;;;9.63;2.42;;;16.10;62.40;;;;;;4883138;29;20048;-77
2023/01/31 09:42:41;;;;;;;11.23;2.10;;;16.10;62.60;;;;;;4852153;29;20045;-75
2023/01/31 09:45:17;;;;;;;9.27;2.10;;;16.10;62.60;;;;;;4883912;29;20116;-77
2023/01/31 09:47:47;;;;;;;17.30;2.75;;;16.00;62.70;;;;;;4865566;29;20105;-78
2023/01/31 09:50:20;;;;;;;9.73;2.45;;;16.10;62.80;;;;;;4865651;29;20094;-77
2023/01/31 09:52:48;;;;;;;11.70;3.63;;;16.10;62.80;;;;;;4875892;29;20463;-77
2023/01/31 09:55:20;;;;;;;10.90;2.83;;;16.10;62.90;;;;;;4866910;29;20125;-77
2023/01/31 09:58:00;;;;;;;13.55;2.40;;;16.10;63.10;;;;;;4863787;29;20455;-75
2023/01/31 10:01:14;;;;;;;19.33;5.05;;;16.10;63.30;;;;;;4852390;29;20049;-77
2023/01/31 10:04:01;;;;;;;15.57;5.07;;;16.10;63.50;;;;;;4879046;29;20353;-77
2023/01/31 10:06:36;;;;;;;18.20;6.18;;;16.10;63.50;;;;;;4867221;29;20049;-76
2023/01/31 10:09:18;;;;;;;15.23;6.70;;;16.10;63.50;;;;;;4867466;29;20080;-76
2023/01/31 10:11:59;;;;;;;23.20;9.05;;;16.10;63.40;;;;;;4867668;29;20096;-75
2023/01/31 10:14:28;;;;;;;21.48;9.75;;;15.80;63.30;;;;;;4864755;29;20144;-80
2023/01/31 10:17:01;;;;;;;22.27;10.18;;;15.90;63.70;;;;;;4865605;29;20410;-77
2023/01/31 10:19:56;;;;;;;22.88;12.32;;;15.90;63.90;;;;;;4867269;29;20085;-76
2023/01/31 10:22:45;;;;;;;25.52;13.00;;;16.00;64.00;;;;;;4864088;29;20057;-78
2023/01/31 10:25:37;;;;;;;29.00;11.88;;;16.00;64.00;;;;;;4864105;29;20107;-78
2023/01/31 10:28:08;;;;;;;25.75;13.88;;;16.00;63.90;;;;;;4865551;29;20517;-74
2023/01/31 10:30:53;;;;;;;22.85;12.30;;;16.00;64.00;;;;;;4877643;29;20049;-78
2023/01/31 10:33:51;;;;;;;25.35;13.68;;;16.00;64.30;;;;;;4848225;29;20122;-75
2023/01/31 10:36:25;;;;;;;26.73;14.00;;;16.00;64.30;;;;;;4860017;29;20062;-75
2023/01/31 10:39:26;;;;;;;23.45;12.73;;;16.00;64.40;;;;;;4871285;29;20053;-75
2023/01/31 10:42:07;;;;;;;24.13;12.88;;;16.00;64.50;;;;;;4846879;29;20057;-77
2023/01/31 10:44:38;;;;;;;23.75;12.13;;;16.00;64.30;;;;;;4864286;29;20053;-74
2023/01/31 10:47:10;;;;;;;23.08;11.52;;;16.00;64.70;;;;;;4864952;29;20137;-74
2023/01/31 10:49:36;;;;;;;21.70;10.10;;;16.00;64.90;;;;;;4863765;29;20057;-76
2023/01/31 10:52:27;;;;;;;25.75;11.52;;;16.10;65.10;;;;;;4848078;29;20334;-76
2023/01/31 10:55:32;;;;;;;17.88;10.43;;;16.10;65.60;;;;;;4864362;29;20045;-74
2023/01/31 10:57:58;;;;;;;25.13;10.60;;;16.10;66.10;;;;;;4863813;29;20049;-76
2023/01/31 11:00:32;;;;;;;22.75;10.10;;;16.00;66.30;;;;;;4864405;29;20128;-77
2023/01/31 11:02:58;;;;;;;23.13;10.13;;;16.00;66.70;;;;;;4863697;29;20057;-79
2023/01/31 11:05:27;;;;;;;14.82;5.65;;;16.00;66.80;;;;;;4853797;29;20037;-79
2023/01/31 11:08:00;;;;;;;15.98;3.72;;;16.00;63.70;;;;;;4862277;29;20072;-77
2023/01/31 11:10:31;;;;;;;12.13;3.70;;;15.70;59.10;;;;;;4862916;29;20056;-76
2023/01/31 11:13:03;;;;;;;17.05;3.30;;;15.40;60.30;;;;;;4846395;29;20074;-72
2023/01/31 11:15:37;;;;;;;16.30;3.22;;;15.10;60.80;;;;;;4845934;29;20056;-74
2023/01/31 11:18:03;;;;;;;13.50;3.17;;;15.00;59.80;;;;;;4846319;29;20132;-75
2023/01/31 11:20:36;;;;;;;11.40;3.08;;;14.90;61.00;;;;;;4864006;29;20129;-77
2023/01/31 11:23:04;;;;;;;10.85;3.38;;;14.80;61.10;;;;;;4875860;29;20124;-75
2023/01/31 11:25:32;;;;;;;14.45;2.45;;;14.80;61.30;;;;;;4882034;29;20499;-74
2023/01/31 11:28:01;;;;;;;11.18;3.45;;;14.90;61.30;;;;;;4874501;29;20458;-77
2023/01/31 11:30:30;;;;;;;10.68;3.00;;;14.90;61.40;;;;;;4862202;29;20049;-74
2023/01/31 11:32:56;;;;;;;9.13;2.20;;;14.90;61.50;;;;;;4846335;29;20049;-74
2023/01/31 11:35:26;;;;;;;10.45;2.45;;;14.90;61.60;;;;;;4863157;29;20053;-74
2023/01/31 11:38:11;;;;;;;11.60;3.03;;;14.90;61.70;;;;;;4870267;29;20368;-76
2023/01/31 11:40:39;;;;;;;12.90;3.15;;;14.90;61.80;;;;;;4871141;29;20053;-75
2023/01/31 11:43:21;;;;;;;13.50;2.78;;;14.90;62.00;;;;;;4863105;29;20085;-75
2023/01/31 11:45:57;;;;;;;11.18;2.58;;;14.90;62.10;;;;;;4862908;29;20045;-77
2023/01/31 11:48:26;;;;;;;9.50;2.42;;;15.00;62.30;;;;;;4880535;29;20495;-74
2023/01/31 11:50:57;;;;;;;7.68;2.20;;;14.90;62.40;;;;;;4879985;29;20084;-76
2023/01/31 11:53:42;;;;;;;11.70;2.42;;;14.90;62.60;;;;;;4865622;29;20070;-75
2023/01/31 11:56:26;;;;;;;10.63;2.55;;;14.90;62.60;;;;;;4860901;29;20105;-77
2023/01/31 11:59:01;;;;;;;;;;;14.90;62.80;;;;;;4847333;29;20133;-78
2023/01/31 12:01:27;;;;;;;7.47;2.63;;;14.90;63.00;;;;;;4863022;29;20332;-75
2023/01/31 12:04:04;;;;;;;8.38;2.08;;;14.90;63.10;;;;;;4862864;29;20041;-75
2023/01/31 12:06:38;;;;;;;7.80;2.08;;;14.90;63.20;;;;;;4845737;29;20057;-72
2023/01/31 12:09:26;;;;;;;8.82;2.40;;;14.90;63.30;;;;;;4844247;29;20053;-73
2023/01/31 12:11:53;;;;;;;7.28;2.22;;;14.90;63.30;;;;;;4862132;29;20057;-76
2023/01/31 12:14:20;;;;;;;7.20;2.22;;;14.80;63.40;;;;;;4851725;29;20120;-80
2023/01/31 12:16:48;;;;;;;9.43;2.72;;;14.80;63.40;;;;;;4862125;29;20061;-77
2023/01/31 12:19:27;;;;;;;11.95;2.72;;;14.90;63.50;;;;;;4863766;29;20409;-75
2023/01/31 12:22:11;;;;;;;8.60;2.20;;;14.90;63.30;;;;;;4858284;29;20061;-74
2023/01/31 12:24:51;;;;;;;8.57;1.85;;;14.90;63.20;;;;;;4853573;29;20472;-76
2023/01/31 12:27:27;;;;;;;12.07;2.33;;;14.80;63.10;;;;;;4881434;29;20060;-79
2023/01/31 12:30:11;;;;;;;11.18;2.92;;;14.80;63.20;;;;;;4864532;29;20090;-78
2023/01/31 12:33:01;;;;;;;9.15;2.05;;;14.80;63.20;;;;;;4846792;29;20461;-74
2023/01/31 12:35:52;;;;;;;10.00;2.20;;;14.80;63.30;;;;;;4862968;29;20112;-75
2023/01/31 12:38:45;;;;;;;7.28;2.05;;;14.70;63.40;;;;;;4862142;29;20057;-76
2023/01/31 12:41:20;;;;;;;8.60;2.13;;;14.70;63.40;;;;;;4871882;29;20460;-76
2023/01/31 12:44:05;;;;;;;12.95;2.20;;;14.70;63.50;;;;;;4845696;29;20049;-77
2023/01/31 12:46:36;;;;;;;6.38;1.85;;;14.70;63.50;;;;;;4862932;29;20084;-76
2023/01/31 12:49:23;;;;;;;9.77;2.72;;;14.60;63.60;;;;;;4862388;29;20064;-77
2023/01/31 12:52:07;;;;;;;8.43;1.77;;;14.70;63.60;;;;;;4862075;29;20061;-73
2023/01/31 12:54:49;;;;;;;8.15;1.75;;;14.70;63.90;;;;;;4862618;29;20045;-77
2023/01/31 12:57:27;;;;;;;10.15;2.30;;;14.70;64.00;;;;;;4861917;29;20465;-74
2023/01/31 13:00:15;;;;;;;11.73;2.88;;;14.70;63.90;;;;;;4834249;29;20064;-76
2023/01/31 13:03:11;;;;;;;7.90;1.98;;;14.70;63.80;;;;;;4854417;29;20050;-77
2023/01/31 13:05:45;;;;;;;8.27;2.03;;;14.60;64.10;;;;;;4855508;29;20490;-74
2023/01/31 13:08:21;;;;;;;7.78;1.92;;;14.40;64.50;;;;;;4871689;29;20360;-75
2023/01/31 13:11:06;;;;;;;8.50;2.05;;;14.30;64.90;;;;;;4869643;29;20045;-76
2023/01/31 13:13:41;;;;;;;9.05;2.50;;;14.20;65.10;;;;;;4852114;29;20481;-75
2023/01/31 13:16:28;;;;;;;8.00;2.10;;;14.20;65.40;;;;;;4852618;29;20072;-74
2023/01/31 13:18:59;;;;;;;10.27;2.30;;;14.10;65.90;;;;;;4863750;29;20457;-73
2023/01/31 13:21:31;;;;;;;9.20;2.15;;;14.00;66.10;;;;;;4860734;29;20057;-75
2023/01/31 13:24:14;;;;;;;7.32;2.03;;;13.90;66.40;;;;;;4861743;29;20052;-76
2023/01/31 13:26:48;;;;;;;6.65;2.08;;;13.90;66.50;;;;;;4862676;29;20114;-74
2023/01/31 13:29:42;;;;;;;7.90;2.03;;;13.80;66.60;;;;;;4865221;29;20381;-74
2023/01/31 13:32:14;;;;;;;;;;;13.80;66.80;;;;;;4864160;29;20045;-78
2023/01/31 13:35:23;;;;;;;16.80;2.53;;;13.90;66.50;;;;;;4865075;29;19980;-77
2023/01/31 13:37:53;;;;;;;23.63;4.20;;;14.00;66.30;;;;;;4863261;29;20061;-73
2023/01/31 13:40:34;;;;;;;10.82;2.47;;;14.10;66.10;;;;;;4870725;29;20101;-76
2023/01/31 13:43:10;;;;;;;13.45;2.85;;;14.10;65.90;;;;;;4884301;29;20061;-74
2023/01/31 13:45:51;;;;;;;14.65;2.45;;;14.10;65.70;;;;;;4885788;29;20127;-79
2023/01/31 13:48:17;;;;;;;15.80;2.78;;;14.30;65.70;;;;;;4883651;29;20129;-75
2023/01/31 13:51:14;;;;;;;13.70;3.53;;;14.50;65.50;;;;;;4878972;29;20041;-74
2023/01/31 13:54:04;;;;;;;9.10;1.90;;;14.70;65.20;;;;;;4867308;29;20508;-77
2023/01/31 13:56:35;;;;;;;11.75;2.40;;;14.80;65.20;;;;;;4872677;29;20061;-77
2023/01/31 13:59:01;;;;;;;16.55;3.60;;;15.00;64.90;;;;;;4884317;29;20052;-76
2023/01/31 14:01:34;;;;;;;13.93;3.47;;;15.10;64.80;;;;;;4852832;29;20054;-76
2023/01/31 14:04:16;;;;;;;12.63;2.97;;;15.20;64.80;;;;;;4864980;29;20124;-76
2023/01/31 14:07:06;;;;;;;13.57;2.70;;;15.20;65.00;;;;;;4865257;29;20049;-79
2023/01/31 14:09:44;;;;;;;24.48;3.60;;;15.20;65.00;;;;;;4866101;29;20053;-71
2023/01/31 14:12:09;;;;;;;25.15;4.78;;;15.30;65.00;;;;;;4883454;29;20069;-76
2023/01/31 14:14:38;;;;;;;17.27;3.47;;;15.30;65.00;;;;;;4883644;29;20456;-74
2023/01/31 14:17:20;;;;;;;18.60;3.03;;;15.40;65.10;;;;;;4858433;29;20054;-73
2023/01/31 14:19:46;;;;;;;16.60;3.10;;;15.40;65.00;;;;;;4863816;29;20089;-75
2023/01/31 14:22:15;;;;;;;16.85;3.33;;;15.50;65.20;;;;;;4864459;29;20110;-75
2023/01/31 14:24:52;;;;;;;24.48;3.05;;;15.60;65.20;;;;;;4864456;29;20056;-74
2023/01/31 14:27:30;;;;;;;11.57;2.63;;;15.60;65.20;;;;;;4864359;29;20053;-79
2023/01/31 14:30:05;;;;;;;19.85;3.67;;;15.60;65.30;;;;;;4868022;29;20348;-73
2023/01/31 14:32:40;;;;;;;16.42;3.35;;;15.80;65.40;;;;;;4883113;29;20041;-76
2023/01/31 14:35:12;;;;;;;19.70;3.50;;;15.90;65.40;;;;;;4883120;29;20049;-76
2023/01/31 14:37:56;;;;;;;20.95;3.65;;;16.00;65.30;;;;;;4883050;29;20056;-77
2023/01/31 14:40:28;;;;;;;14.45;2.67;;;16.00;65.20;;;;;;4862175;29;20064;-76
2023/01/31 14:42:59;;;;;;;16.08;2.88;;;16.10;65.20;;;;;;4875605;29;20484;-80
2023/01/31 14:45:55;;;;;;;19.98;3.08;;;16.10;65.10;;;;;;4864589;29;20064;-73
2023/01/31 14:48:38;;;;;;;19.35;3.75;;;16.10;64.90;;;;;;4864475;29;20121;-77
2023/01/31 14:51:08;;;;;;;20.95;3.13;;;16.20;64.70;;;;;;4875565;29;20045;-78
2023/01/31 14:54:08;;;;;;;18.83;3.70;;;16.20;64.90;;;;;;4882730;29;20137;-76
2023/01/31 14:56:52;;;;;;;18.50;3.33;;;16.20;65.10;;;;;;4882929;29;20433;-77
2023/01/31 14:59:20;;;;;;;;;;;16.10;63.90;;;;;;4835954;29;20066;-77
2023/01/31 15:01:46;;;;;;;14.70;3.28;;;16.10;62.20;;;;;;4863302;29;19924;-75
2023/01/31 15:04:20;;;;;;;19.70;4.00;;;16.00;62.00;;;;;;4847304;29;20480;-78
2023/01/31 15:06:47;;;;;;;;;;;16.00;60.20;;;;;;4863567;29;20056;-76
2023/01/31 15:09:26;;;;;;;10.85;3.05;;;15.90;59.50;;;;;;4877704;29;20274;-77
2023/01/31 15:11:54;;;;;;;15.77;4.22;;;15.90;60.10;;;;;;4866759;29;20467;-76
2023/01/31 15:14:43;;;;;;;14.07;3.78;;;15.80;60.90;;;;;;4882705;29;20135;-77
2023/01/31 15:17:22;;;;;;;21.40;3.30;;;15.80;61.30;;;;;;4882488;29;20063;-75
2023/01/31 15:20:05;;;;;;;18.00;3.17;;;15.80;61.50;;;;;;4845190;29;20089;-76
2023/01/31 15:22:37;;;;;;;8.70;2.85;;;15.70;62.10;;;;;;4845133;29;20045;-76
2023/01/31 15:25:19;;;;;;;11.50;3.10;;;15.70;62.20;;;;;;4845347;29;20060;-75
2023/01/31 15:27:46;;;;;;;15.10;3.47;;;15.60;62.30;;;;;;4848209;29;20125;-77
2023/01/31 15:30:18;;;;;;;12.32;3.30;;;15.60;62.50;;;;;;4863515;29;20368;-76
2023/01/31 15:32:52;;;;;;;16.27;3.63;;;15.60;62.60;;;;;;4862864;29;20041;-78
2023/01/31 15:35:21;;;;;;;;;;;15.60;63.40;;;;;;4847304;29;20090;-78
2023/01/31 15:37:57;;;;;;;10.82;2.78;;;15.60;63.30;;;;;;4865704;29;20343;-76
2023/01/31 15:40:24;;;;;;;13.75;4.22;;;15.60;63.30;;;;;;4865518;29;20476;-76
2023/01/31 15:42:50;;;;;;;16.33;4.45;;;15.60;63.60;;;;;;4882250;29;20361;-79
2023/01/31 15:45:16;;;;;;;14.32;4.00;;;15.60;63.50;;;;;;4881968;29;20063;-79
2023/01/31 15:47:42;;;;;;;18.02;3.65;;;15.50;63.10;;;;;;4879716;29;20099;-77
2023/01/31 15:50:16;;;;;;;15.25;3.67;;;15.50;62.40;;;;;;4862814;29;20057;-83
2023/01/31 15:52:47;;;;;;;15.85;3.60;;;15.50;61.10;;;;;;4844644;29;20105;-81
2023/01/31 15:55:15;;;;;;;16.70;4.15;;;15.50;60.90;;;;;;4860965;29;20042;-76
2023/01/31 15:57:57;;;;;;;17.73;3.55;;;15.50;60.80;;;;;;4863265;29;20125;-76
2023/01/31 16:00:27;;;;;;;12.05;3.35;;;15.60;60.90;;;;;;4863408;29;20404;-80
2023/01/31 16:02:59;;;;;;;11.60;2.72;;;15.70;61.10;;;;;;4863113;29;20117;-80
2023/01/31 16:05:33;;;;;;;13.27;2.50;;;15.80;61.20;;;;;;4862837;29;20056;-76
2023/01/31 16:08:11;;;;;;;14.30;3.70;;;15.90;61.60;;;;;;4863458;29;20344;-77
2023/01/31 16:10:37;;;;;;;19.63;3.65;;;16.00;61.70;;;;;;4864026;29;20362;-77
2023/01/31 16:13:03;;;;;;;16.48;3.78;;;16.20;61.80;;;;;;4881633;29;20056;-78
2023/01/31 16:15:29;;;;;;;14.38;3.00;;;16.20;61.70;;;;;;4881934;29;20401;-78
2023/01/31 16:17:59;;;;;;;16.90;3.83;;;16.20;61.60;;;;;;4880868;29;20060;-77
2023/01/31 16:20:44;;;;;;;21.45;3.28;;;16.20;61.60;;;;;;4881650;29;20037;-77
2023/01/31 16:23:25;;;;;;;18.67;4.82;;;16.30;62.10;;;;;;4863026;29;20094;-80
2023/01/31 16:26:19;;;;;;;17.20;3.38;;;16.30;62.40;;;;;;4862753;29;20046;-77
2023/01/31 16:28:57;;;;;;;15.02;3.28;;;16.30;63.40;;;;;;4858985;29;20382;-79
2023/01/31 16:31:35;;;;;;;15.07;4.07;;;16.30;63.70;;;;;;4869857;29;20060;-79
2023/01/31 16:34:03;;;;;;;16.45;3.40;;;16.30;63.90;;;;;;4881380;29;20084;-77
2023/01/31 16:36:55;;;;;;;19.55;3.80;;;16.30;64.00;;;;;;4881124;29;20137;-77
2023/01/31 16:39:35;;;;;;;24.33;4.45;;;16.30;64.50;;;;;;4847361;29;20057;-79
2023/01/31 16:42:03;;;;;;;16.92;3.50;;;16.20;64.50;;;;;;4869083;29;20045;-81
2023/01/31 16:44:34;;;;;;;24.92;4.65;;;16.20;64.60;;;;;;4876421;29;20056;-79
2023/01/31 16:47:00;;;;;;;21.75;3.67;;;16.20;64.90;;;;;;4863010;29;20076;-79
2023/01/31 16:49:29;;;;;;;23.48;4.25;;;16.10;65.00;;;;;;4846433;29;20045;-78
2023/01/31 16:52:15;;;;;;;23.10;4.47;;;16.10;65.20;;;;;;4861447;29;20197;-80
2023/01/31 16:54:52;;;;;;;20.38;3.78;;;16.10;65.10;;;;;;4860979;29;20060;-80
2023/01/31 16:57:56;;;;;;;17.27;4.05;;;16.10;64.90;;;;;;4868543;29;20049;-85
2023/01/31 17:00:33;;;;;;;13.60;3.75;;;16.10;64.90;;;;;;4812161;29;20068;-81
2023/01/31 17:03:00;;;;;;;15.98;4.03;;;16.10;64.60;;;;;;4846729;29;20048;-80
2023/01/31 17:05:38;;;;;;;22.60;4.50;;;16.10;63.90;;;;;;4831045;29;20124;-81
2023/01/31 17:08:10;;;;;;;21.33;4.97;;;16.00;61.10;;;;;;4834471;29;20124;-77
2023/01/31 17:10:39;;;;;;;23.80;5.28;;;15.90;61.40;;;;;;4864807;29;20454;-79
2023/01/31 17:13:11;;;;;;;25.50;4.68;;;15.90;61.10;;;;;;4847122;29;20093;-80
2023/01/31 17:15:55;;;;;;;27.88;6.25;;;15.80;61.10;;;;;;4865955;29;20072;-81
2023/01/31 17:18:20;;;;;;;24.98;5.07;;;15.80;61.50;;;;;;4837661;29;20413;-80
2023/01/31 17:20:48;;;;;;;26.35;4.93;;;15.80;61.70;;;;;;4852907;29;20122;-81
2023/01/31 17:23:14;;;;;;;23.45;5.30;;;15.80;61.40;;;;;;4865368;29;20037;-79
2023/01/31 17:25:41;;;;;;;29.45;5.45;;;15.80;60.70;;;;;;4846382;29;20042;-82
2023/01/31 17:28:07;;;;;;;23.98;5.13;;;15.80;60.00;;;;;;4833086;29;20057;-81
2023/01/31 17:30:36;;;;;;;23.02;5.70;;;15.70;59.60;;;;;;4848526;29;20044;-83
2023/01/31 17:33:02;;;;;;;23.35;4.55;;;15.70;59.50;;;;;;4833247;29;20124;-79
2023/01/31 17:35:38;;;;;;;22.00;5.38;;;15.60;59.40;;;;;;4847980;29;20049;-81
2023/01/31 17:38:04;;;;;;;25.08;5.63;;;15.60;59.50;;;;;;4863077;29;20090;-80
2023/01/31 17:40:31;;;;;;;15.43;4.50;;;15.60;59.90;;;;;;4848139;29;20045;-78
2023/01/31 17:42:58;;;;;;;15.90;4.25;;;15.50;60.10;;;;;;4848051;29;20061;-80
2023/01/31 17:45:25;;;;;;;15.02;3.90;;;15.60;60.40;;;;;;4848419;29;20120;-75
2023/01/31 17:47:51;;;;;;;22.83;4.03;;;15.50;60.70;;;;;;4864530;29;20105;-83
2023/01/31 17:50:20;;;;;;;22.98;4.63;;;15.50;60.70;;;;;;4832506;29;20042;-80
2023/01/31 17:52:46;;;;;;;17.55;3.95;;;15.50;60.90;;;;;;4832648;29;20033;-80
2023/01/31 17:55:13;;;;;;;16.17;4.20;;;15.50;61.00;;;;;;4848169;29;20038;-84
2023/01/31 17:57:41;;;;;;;18.83;4.18;;;15.50;61.10;;;;;;4848522;29;20327;-78
2023/01/31 18:00:10;;;;;;;21.13;4.13;;;15.50;61.40;;;;;;4864561;29;20041;-79
2023/01/31 18:02:36;;;;;;;17.08;3.80;;;15.40;61.60;;;;;;4845493;29;20041;-78
2023/01/31 18:05:03;;;;;;;16.52;4.50;;;15.40;61.50;;;;;;4864287;29;20052;-80
2023/01/31 18:07:29;;;;;;;18.60;4.10;;;15.40;61.50;;;;;;4832884;29;20141;-79
2023/01/31 18:09:55;;;;;;;14.38;3.60;;;15.40;61.40;;;;;;4863958;29;20049;-81
2023/01/31 18:12:21;;;;;;;18.75;3.78;;;15.40;61.30;;;;;;4860956;29;20145;-82
2023/01/31 18:14:47;;;;;;;15.88;3.65;;;15.30;61.60;;;;;;4830168;29;20087;-82
2023/01/31 18:17:12;;;;;;;12.10;3.60;;;15.00;62.20;;;;;;4815579;29;20452;-79
2023/01/31 18:19:38;;;;;;;14.27;3.67;;;15.00;62.60;;;;;;4842615;29;20457;-80
2023/01/31 18:22:04;;;;;;;15.40;3.85;;;14.90;62.90;;;;;;4844613;29;20046;-81
2023/01/31 18:24:30;;;;;;;13.95;3.13;;;14.90;62.90;;;;;;4821881;29;20052;-78
2023/01/31 18:26:56;;;;;;;14.80;3.63;;;14.90;63.40;;;;;;4833502;29;20058;-76
2023/01/31 18:29:24;;;;;;;15.75;3.70;;;15.00;63.50;;;;;;4853883;29;20041;-79
2023/01/31 18:31:54;;;;;;;15.38;3.25;;;15.00;63.70;;;;;;4829842;29;20091;-75
2023/01/31 18:34:20;;;;;;;15.75;3.85;;;15.00;63.60;;;;;;4845987;29;20041;-79
2023/01/31 18:36:46;;;;;;;18.95;3.63;;;15.10;63.80;;;;;;4860805;29;20117;-76
2023/01/31 18:39:11;;;;;;;20.50;4.15;;;15.10;63.20;;;;;;4848715;29;20437;-76
2023/01/31 18:41:39;;;;;;;14.18;3.35;;;15.10;63.90;;;;;;4861257;29;20045;-83
2023/01/31 18:44:05;;;;;;;13.77;3.20;;;15.10;64.10;;;;;;4814628;29;20082;-76
2023/01/31 18:46:31;;;;;;;14.07;3.50;;;15.20;64.50;;;;;;4858148;29;20053;-76
2023/01/31 18:48:57;;;;;;;13.75;3.17;;;15.20;64.50;;;;;;4864104;29;20331;-76
2023/01/31 18:51:22;;;;;;;12.45;3.75;;;15.20;64.10;;;;;;4851970;29;20129;-79
2023/01/31 18:53:48;;;;;;;11.55;3.55;;;15.20;63.80;;;;;;4849059;29;20414;-77
2023/01/31 18:56:19;;;;;;;12.05;3.17;;;15.20;63.70;;;;;;4856143;29;20050;-78
2023/01/31 18:58:51;;;;;;;15.05;3.25;;;15.20;63.90;;;;;;4855839;29;20378;-75
2023/01/31 19:01:24;;;;;;;22.20;4.43;;;15.20;64.00;;;;;;4845385;29;20054;-78
2023/01/31 19:03:54;;;;;;;;;;;15.20;64.10;;;;;;4845679;29;20558;-78
2023/01/31 19:06:27;;;;;;;17.70;4.00;;;15.10;64.30;;;;;;4856401;29;19934;-78
2023/01/31 19:08:55;;;;;;;28.95;5.18;;;15.10;64.10;;;;;;4852623;29;20052;-78
2023/01/31 19:11:25;;;;;;;27.23;4.78;;;15.10;64.20;;;;;;4845449;29;20050;-77
2023/01/31 19:13:51;;;;;;;23.83;4.70;;;15.10;64.10;;;;;;4858789;29;20118;-77
2023/01/31 19:16:22;;;;;;;18.00;3.60;;;15.10;63.90;;;;;;4861423;29;20052;-77
2023/01/31 19:18:48;;;;;;;20.50;4.38;;;15.10;63.80;;;;;;4860118;29;20085;-78
